Time;durP1;ratioP1;P1;durP2;ratioP2;P2;SDS_P1;SDS_P2;PMS_P1;PMS_P2;Temp;Humidity;BMP_temperature;BMP_pressure;BME280_temperature;BME280_humidity;BME280_pressure;Samples;Min_cycle;Max_cycle;Signal;HPM_P1;HPM_P2
2022/10/16 00:00:10;;;;;;;36.08;14.13;;;;;;;13.16;96.81;100505.97;2065892;28;20038;-73
2022/10/16 00:01:16;;;;;;;34.70;14.95;;;;;;;13.13;96.79;100495.75;2064663;28;20430;-73
2022/10/16 00:02:21;;;;;;;36.13;14.75;;;;;;;13.11;96.63;100504.16;2057788;28;20487;-73
2022/10/16 00:03:24;;;;;;;35.47;14.88;;;;;;;13.11;96.86;100493.34;2063883;28;20454;-73
2022/10/16 00:04:30;;;;;;;30.80;14.57;;;;;;;13.11;96.83;100487.94;2065508;28;20049;-73
2022/10/16 00:05:40;;;;;;;32.05;14.18;;;;;;;13.13;97.13;100499.25;2064566;28;20038;-73
2022/10/16 00:06:42;;;;;;;34.17;15.27;;;;;;;13.16;97.15;100490.56;2057425;28;20042;-73
2022/10/16 00:07:53;;;;;;;34.90;14.40;;;;;;;13.20;97.31;100493.47;2073029;28;20187;-73
2022/10/16 00:08:57;;;;;;;34.80;14.52;;;;;;;13.25;97.51;100498.03;2079116;28;20049;-72
2022/10/16 00:10:05;;;;;;;33.03;14.30;;;;;;;13.28;97.44;100502.81;2071665;28;20471;-72
2022/10/16 00:11:16;;;;;;;35.33;13.55;;;;;;;13.30;97.47;100496.00;2064972;28;20054;-72
2022/10/16 00:12:19;;;;;;;31.58;14.32;;;;;;;13.33;97.30;100500.03;2067020;28;20045;-72
2022/10/16 00:13:22;;;;;;;32.30;13.75;;;;;;;13.36;97.22;100504.81;2071990;28;20061;-74
2022/10/16 00:14:27;;;;;;;31.60;14.13;;;;;;;13.39;97.47;100499.63;2072509;28;20053;-73
2022/10/16 00:15:37;;;;;;;34.45;14.70;;;;;;;13.38;97.21;100492.63;2072369;28;20580;-73
2022/10/16 00:16:44;;;;;;;33.38;13.93;;;;;;;13.40;97.09;100505.84;2073407;28;20398;-74
2022/10/16 00:17:49;;;;;;;35.28;14.25;;;;;;;13.42;97.21;100504.44;2073302;28;20113;-73
2022/10/16 00:18:53;;;;;;;32.30;14.23;;;;;;;13.45;97.11;100508.44;2058648;28;20058;-72
2022/10/16 00:20:00;;;;;;;30.10;13.45;;;;;;;13.47;96.99;100508.94;2058053;28;20042;-73
2022/10/16 00:21:26;;;;;;;32.38;13.07;;;;;;;13.47;97.17;100505.44;2072013;28;20394;-73
2022/10/16 00:22:47;;;;;;;31.48;14.05;;;;;;;13.51;97.01;100506.44;2074164;28;20046;-72
2022/10/16 00:24:06;;;;;;;34.22;14.05;;;;;;;13.53;96.97;100504.25;2074136;28;20060;-74
2022/10/16 00:25:11;;;;;;;34.40;14.30;;;;;;;13.49;96.68;100504.03;2074360;28;20054;-73
2022/10/16 00:26:15;;;;;;;32.28;14.10;;;;;;;13.49;96.73;100498.63;2065552;28;20049;-73
2022/10/16 00:27:18;;;;;;;31.17;13.55;;;;;;;13.53;96.92;100505.06;2065186;28;20418;-74
2022/10/16 00:28:23;;;;;;;33.10;13.15;;;;;;;13.53;96.69;100499.66;2057665;28;20058;-73
2022/10/16 00:29:25;;;;;;;33.60;13.15;;;;;;;13.54;96.63;100505.84;2058733;28;20505;-73
2022/10/16 00:30:30;;;;;;;30.70;13.00;;;;;;;13.54;96.93;100512.06;2065008;28;20057;-73
2022/10/16 00:31:32;;;;;;;25.70;12.63;;;;;;;13.56;96.76;100515.25;2065771;28;20046;-73
2022/10/16 00:32:38;;;;;;;32.28;13.52;;;;;;;13.57;96.81;100511.44;2065129;28;20446;-73
2022/10/16 00:33:42;;;;;;;28.80;13.18;;;;;;;13.59;96.93;100513.88;2065738;28;20058;-73
2022/10/16 00:34:47;;;;;;;34.30;14.07;;;;;;;13.60;96.75;100516.25;2065003;28;20536;-73
2022/10/16 00:35:52;;;;;;;31.90;13.57;;;;;;;13.58;96.71;100517.66;2058324;28;20513;-73
2022/10/16 00:36:56;;;;;;;28.73;13.25;;;;;;;13.56;96.45;100509.84;2049946;28;20046;-74
2022/10/16 00:37:59;;;;;;;28.27;13.00;;;;;;;13.58;96.48;100523.06;2050718;28;20043;-73
2022/10/16 00:39:01;;;;;;;27.98;12.48;;;;;;;13.57;96.27;100516.84;2064894;28;20054;-73
2022/10/16 00:40:04;;;;;;;26.92;12.50;;;;;;;13.57;96.57;100522.25;2065790;28;20037;-73
2022/10/16 00:41:15;;;;;;;30.50;13.10;;;;;;;13.58;96.34;100523.06;2073240;28;20046;-72
2022/10/16 00:42:20;;;;;;;31.23;13.35;;;;;;;13.59;96.77;100527.38;2065534;28;20042;-73
2022/10/16 00:43:47;;;;;;;33.97;13.63;;;;;;;13.57;96.32;100522.25;2056607;28;20061;-73
2022/10/16 00:44:58;;;;;;;32.60;13.48;;;;;;;13.58;96.39;100523.84;2072724;28;20032;-73
2022/10/16 00:46:02;;;;;;;28.95;13.23;;;;;;;13.59;96.43;100528.19;2065474;28;20419;-73
2022/10/16 00:47:10;;;;;;;32.92;13.57;;;;;;;13.61;96.31;100523.25;2066061;28;20498;-73
2022/10/16 00:48:15;;;;;;;31.63;14.20;;;;;;;13.60;96.23;100521.66;2065944;28;20054;-72
2022/10/16 00:49:20;;;;;;;28.20;12.60;;;;;;;13.60;96.05;100516.25;2065295;28;20045;-73
2022/10/16 00:50:34;;;;;;;31.00;13.00;;;;;;;13.61;96.01;100520.56;2066229;28;20462;-73
2022/10/16 00:51:56;;;;;;;33.33;13.23;;;;;;;13.62;96.16;100514.06;2066915;28;20510;-73
2022/10/16 00:53:02;;;;;;;29.80;12.80;;;;;;;13.62;96.22;100524.09;2058108;28;20518;-74
2022/10/16 00:54:12;;;;;;;30.80;13.05;;;;;;;13.61;96.05;100515.16;2058074;28;20038;-72
2022/10/16 00:55:18;;;;;;;28.25;12.80;;;;;;;13.61;95.83;100517.06;2067111;28;20065;-73
2022/10/16 00:56:24;;;;;;;31.02;12.35;;;;;;;13.59;95.68;100509.25;2080826;28;20045;-73
2022/10/16 00:57:29;;;;;;;27.02;11.98;;;;;;;13.59;96.08;100514.66;2071936;28;20041;-71
2022/10/16 00:58:34;;;;;;;26.50;12.48;;;;;;;13.57;96.00;100514.16;2072491;28;20489;-72
2022/10/16 00:59:38;;;;;;;25.08;11.93;;;;;;;13.59;95.66;100517.38;2064090;28;20046;-72
2022/10/16 01:00:46;;;;;;;;;;;;;;;13.59;95.66;100511.97;2066846;28;20072;-72
2022/10/16 01:01:48;;;;;;;33.13;14.27;;;;;;;13.59;95.94;100520.06;2071654;28;19913;-73
2022/10/16 01:02:59;;;;;;;27.10;12.25;;;;;;;13.60;95.67;100518.97;2064814;28;20072;-73
2022/10/16 01:04:01;;;;;;;32.13;13.02;;;;;;;13.60;95.81;100516.25;2064946;28;20038;-73
2022/10/16 01:05:06;;;;;;;29.90;12.27;;;;;;;13.61;95.37;100520.56;2056337;28;20035;-72
2022/10/16 01:06:41;;;;;;;27.00;12.32;;;;;;;13.59;95.61;100514.66;2057173;28;20381;-73
2022/10/16 01:08:12;;;;;;;28.92;13.13;;;;;;;13.58;95.35;100514.94;2072474;28;20053;-72
2022/10/16 01:09:20;;;;;;;30.00;12.60;;;;;;;13.60;95.61;100510.84;2077739;28;20501;-72
2022/10/16 01:10:42;;;;;;;27.30;11.35;;;;;;;13.58;95.39;100504.94;2064497;28;20046;-72
2022/10/16 01:11:51;;;;;;;25.02;11.27;;;;;;;13.60;95.51;100516.25;2062693;28;20429;-73
2022/10/16 01:13:09;;;;;;;24.60;11.60;;;;;;;13.61;95.59;100515.16;2071012;28;20536;-73
2022/10/16 01:14:34;;;;;;;27.48;11.13;;;;;;;13.64;95.23;100508.34;2065250;28;20061;-72
2022/10/16 01:15:53;;;;;;;26.15;10.70;;;;;;;13.66;95.20;100514.25;2054620;28;20061;-73
2022/10/16 01:17:29;;;;;;;27.50;10.82;;;;;;;13.64;95.02;100503.75;2059130;28;20058;-72
2022/10/16 01:19:01;;;;;;;23.33;10.63;;;;;;;13.63;95.23;100504.06;2062339;28;20046;-72
2022/10/16 01:20:09;;;;;;;25.15;10.80;;;;;;;13.62;95.21;100508.66;2072988;28;20071;-73
2022/10/16 01:21:34;;;;;;;27.98;11.32;;;;;;;13.63;94.98;100510.25;2071669;28;20042;-72
2022/10/16 01:23:20;;;;;;;26.42;10.77;;;;;;;13.62;94.81;100508.66;2065208;28;20038;-72
2022/10/16 01:24:44;;;;;;;26.13;10.88;;;;;;;13.63;94.77;100515.66;2035125;29;20044;-72
2022/10/16 01:25:56;;;;;;;23.02;10.25;;;;;;;13.61;95.12;100515.16;2047148;28;20066;-73
2022/10/16 01:27:08;;;;;;;27.95;11.10;;;;;;;13.61;94.72;100520.56;2057328;28;20039;-72
2022/10/16 01:28:16;;;;;;;22.83;10.65;;;;;;;13.63;94.88;100515.66;2062649;28;20046;-72
2022/10/16 01:29:27;;;;;;;22.70;10.60;;;;;;;13.65;95.12;100524.28;2056646;28;20038;-72
2022/10/16 01:30:30;;;;;;;;;;;;;;;13.67;94.62;100522.06;2049423;28;20488;-72
2022/10/16 01:31:39;;;;;;;23.30;10.15;;;;;;;13.69;94.97;100519.06;2065324;28;20420;-72
2022/10/16 01:32:42;;;;;;;25.40;10.68;;;;;;;13.70;94.78;100519.88;2063972;28;20510;-72
2022/10/16 01:33:54;;;;;;;26.65;11.43;;;;;;;13.72;94.69;100523.09;2049047;28;20047;-73
2022/10/16 01:35:04;;;;;;;23.30;10.32;;;;;;;13.72;94.70;100523.09;2059486;28;20041;-72
2022/10/16 01:36:21;;;;;;;23.15;11.10;;;;;;;13.75;94.63;100519.78;2048382;28;20054;-72
2022/10/16 01:37:48;;;;;;;21.52;9.25;;;;;;;13.74;94.78;100520.84;2055307;28;20039;-72
2022/10/16 01:38:56;;;;;;;28.23;9.63;;;;;;;13.75;94.66;100525.19;2067984;28;20421;-73
2022/10/16 01:40:02;;;;;;;22.35;9.85;;;;;;;13.76;94.66;100530.28;2057799;28;20030;-72
2022/10/16 01:41:21;;;;;;;21.40;10.43;;;;;;;13.78;94.44;100530.78;2058672;28;20442;-72
2022/10/16 01:42:34;;;;;;;24.40;10.02;;;;;;;13.79;94.45;100536.97;2072839;28;20050;-73
2022/10/16 01:43:43;;;;;;;24.92;10.95;;;;;;;13.80;94.60;100525.06;2071665;28;20076;-72
2022/10/16 01:44:51;;;;;;;23.17;10.35;;;;;;;13.79;94.46;100520.78;2074696;28;20037;-72
2022/10/16 01:46:00;;;;;;;19.48;10.15;;;;;;;13.81;94.62;100537.50;2080921;28;20065;-73
2022/10/16 01:47:07;;;;;;;21.15;9.40;;;;;;;13.82;94.60;100528.28;2065146;28;20038;-73
2022/10/16 01:48:12;;;;;;;21.33;9.95;;;;;;;13.84;94.50;100531.47;2057701;28;20038;-73
2022/10/16 01:49:15;;;;;;;23.08;10.23;;;;;;;13.86;94.56;100530.06;2073342;28;20070;-73
2022/10/16 01:50:21;;;;;;;22.30;9.88;;;;;;;13.87;94.71;100534.38;2072488;28;20077;-73
2022/10/16 01:51:29;;;;;;;22.55;10.63;;;;;;;13.90;94.53;100538.38;2065738;28;20061;-73
2022/10/16 01:52:34;;;;;;;25.42;10.70;;;;;;;13.91;94.38;100540.00;2073271;28;20041;-73
2022/10/16 01:53:37;;;;;;;22.27;10.27;;;;;;;13.91;94.28;100540.00;2081729;28;20041;-73
2022/10/16 01:54:43;;;;;;;24.65;10.40;;;;;;;13.91;94.27;100540.00;2088602;28;20052;-73
2022/10/16 01:55:50;;;;;;;24.95;10.10;;;;;;;13.90;94.06;100536.50;2072681;28;20049;-74
2022/10/16 01:56:56;;;;;;;23.70;10.02;;;;;;;13.88;94.27;100544.09;2072812;28;20053;-73
2022/10/16 01:58:03;;;;;;;26.17;11.02;;;;;;;13.89;94.36;100539.47;2071225;28;20034;-73
2022/10/16 01:59:18;;;;;;;28.80;10.30;;;;;;;13.92;94.21;100544.28;2064148;28;20198;-73
2022/10/16 02:00:25;;;;;;;22.25;9.38;;;;;;;13.94;94.29;100547.50;2063136;28;20034;-72
2022/10/16 02:01:33;;;;;;;24.08;9.57;;;;;;;13.94;94.15;100547.50;2071776;28;20060;-73
2022/10/16 02:02:42;;;;;;;19.33;9.43;;;;;;;13.96;94.83;100552.59;2071220;28;20049;-72
2022/10/16 02:03:49;;;;;;;24.27;9.85;;;;;;;13.98;94.19;100548.50;2064097;28;20034;-73
2022/10/16 02:05:01;;;;;;;23.77;9.85;;;;;;;14.00;94.01;100559.81;2049117;28;20538;-72
2022/10/16 02:06:07;;;;;;;21.65;10.00;;;;;;;14.00;94.03;100543.59;2058866;28;20045;-73
2022/10/16 02:07:16;;;;;;;24.80;10.90;;;;;;;14.02;93.45;100544.06;2072205;28;20041;-73
2022/10/16 02:08:19;;;;;;;21.83;9.73;;;;;;;14.02;93.81;100538.66;2072600;28;20053;-73
2022/10/16 02:09:28;;;;;;;25.40;10.05;;;;;;;14.02;93.63;100537.88;2071757;28;20053;-73
2022/10/16 02:10:31;;;;;;;21.55;10.27;;;;;;;14.02;93.77;100535.97;2065467;28;20486;-73
2022/10/16 02:11:37;;;;;;;24.05;10.10;;;;;;;14.04;93.74;100525.66;2072584;28;20066;-73
2022/10/16 02:12:48;;;;;;;23.35;10.43;;;;;;;14.04;93.70;100531.06;2073814;28;20053;-73
2022/10/16 02:14:01;;;;;;;19.98;10.05;;;;;;;14.04;93.62;100528.34;2072032;28;20038;-72
2022/10/16 02:15:07;;;;;;;18.40;8.80;;;;;;;14.03;93.11;100523.25;2066330;28;20054;-72
2022/10/16 02:16:14;;;;;;;22.23;10.05;;;;;;;14.02;93.05;100517.03;2065575;28;20050;-73
2022/10/16 02:17:24;;;;;;;23.17;9.82;;;;;;;14.00;93.25;100513.84;2065346;28;20502;-71
2022/10/16 02:18:31;;;;;;;22.02;9.85;;;;;;;13.98;93.00;100521.47;2072761;28;20548;-72
2022/10/16 02:19:33;;;;;;;21.50;9.80;;;;;;;13.98;92.87;100516.06;2064836;28;20042;-72
2022/10/16 02:21:01;;;;;;;23.08;10.35;;;;;;;13.94;93.11;100517.75;2065140;28;20042;-71
2022/10/16 02:22:09;;;;;;;21.70;9.30;;;;;;;13.93;93.36;100513.44;2073187;28;20041;-72
2022/10/16 02:23:21;;;;;;;21.75;10.05;;;;;;;13.94;93.28;100522.38;2073126;28;20033;-72
2022/10/16 02:24:36;;;;;;;21.10;10.07;;;;;;;13.90;93.19;100528.38;2065084;28;20430;-72
2022/10/16 02:25:44;;;;;;;20.23;10.13;;;;;;;13.86;93.36;100518.47;2060376;28;20474;-72
2022/10/16 02:27:04;;;;;;;19.42;10.00;;;;;;;13.85;93.33;100520.38;2057659;28;20526;-72
2022/10/16 02:28:36;;;;;;;20.33;10.05;;;;;;;13.84;93.27;100523.34;2067166;28;20491;-72
2022/10/16 02:29:48;;;;;;;20.73;10.02;;;;;;;13.82;93.28;100522.88;2042872;28;20492;-71
2022/10/16 02:30:56;;;;;;;22.23;10.60;;;;;;;13.80;93.19;100519.66;2070925;28;20513;-72
2022/10/16 02:32:02;;;;;;;23.65;10.82;;;;;;;13.79;93.41;100513.47;2055689;28;20047;-72
2022/10/16 02:33:09;;;;;;;18.38;9.45;;;;;;;13.79;93.49;100515.38;2057319;28;20030;-72
2022/10/16 02:34:16;;;;;;;19.08;9.52;;;;;;;13.76;93.32;100508.66;2063164;28;20043;-71
2022/10/16 02:35:24;;;;;;;18.95;9.43;;;;;;;13.76;93.36;100518.66;2057450;28;20043;-71
2022/10/16 02:36:28;;;;;;;20.50;9.85;;;;;;;13.75;93.37;100511.66;2065394;28;20046;-71
2022/10/16 02:37:30;;;;;;;21.48;9.95;;;;;;;13.73;93.36;100513.88;2057512;28;20043;-71
2022/10/16 02:38:34;;;;;;;22.80;9.95;;;;;;;13.69;93.43;100513.66;2064822;28;20050;-72
2022/10/16 02:39:39;;;;;;;22.90;10.90;;;;;;;13.69;93.43;100513.66;2073032;28;20061;-71
2022/10/16 02:40:44;;;;;;;24.92;9.98;;;;;;;13.68;93.66;100520.97;2057347;28;20038;-72
2022/10/16 02:41:47;;;;;;;21.65;11.13;;;;;;;13.67;93.86;100511.25;2050462;28;20043;-73
2022/10/16 02:42:55;;;;;;;22.02;9.60;;;;;;;13.67;93.85;100515.84;2057878;28;20097;-72
2022/10/16 02:43:57;;;;;;;21.67;10.48;;;;;;;13.66;93.86;100515.06;2064954;28;20390;-72
2022/10/16 02:45:01;;;;;;;21.52;9.82;;;;;;;13.64;93.72;100511.84;2058512;28;20046;-72
2022/10/16 02:46:03;;;;;;;24.85;10.32;;;;;;;13.62;93.83;100511.38;2066315;28;20042;-71
2022/10/16 02:47:07;;;;;;;20.92;9.82;;;;;;;13.62;93.92;100519.47;2066739;28;20053;-73
2022/10/16 02:48:09;;;;;;;22.33;10.38;;;;;;;13.63;93.94;100515.66;2066672;28;20046;-73
2022/10/16 02:49:13;;;;;;;22.02;10.02;;;;;;;13.63;94.06;100520.25;2066993;28;20501;-71
2022/10/16 02:50:18;;;;;;;24.55;9.48;;;;;;;13.63;94.25;100515.66;2058052;28;20510;-72
2022/10/16 02:51:25;;;;;;;21.70;10.30;;;;;;;13.62;94.17;100519.47;2050595;28;20039;-73
2022/10/16 02:52:27;;;;;;;19.10;9.48;;;;;;;13.63;94.32;100521.06;2056826;28;20046;-73
2022/10/16 02:53:32;;;;;;;20.23;9.77;;;;;;;13.63;94.36;100523.75;2057111;28;20139;-73
2022/10/16 02:54:37;;;;;;;21.55;10.25;;;;;;;13.63;94.20;100521.06;2064310;28;20058;-73
2022/10/16 02:55:45;;;;;;;20.27;10.00;;;;;;;13.65;94.24;100516.16;2065572;28;20383;-73
2022/10/16 02:56:50;;;;;;;19.83;8.85;;;;;;;13.65;94.40;100513.47;2064778;28;20046;-73
2022/10/16 02:57:55;;;;;;;17.48;9.27;;;;;;;13.64;94.43;100514.56;2064753;28;20042;-73
2022/10/16 02:59:00;;;;;;;20.33;9.85;;;;;;;13.64;94.37;100511.84;2069377;28;20049;-73
2022/10/16 03:00:05;;;;;;;23.20;9.82;;;;;;;13.66;94.40;100515.06;2072823;28;20517;-73
2022/10/16 03:01:10;;;;;;;20.55;10.07;;;;;;;13.66;94.59;100509.66;2064524;28;20038;-73
2022/10/16 03:02:15;;;;;;;17.15;9.18;;;;;;;13.66;94.39;100509.66;2071744;28;20076;-72
2022/10/16 03:03:18;;;;;;;20.92;9.82;;;;;;;13.65;94.49;100510.78;2071656;28;20138;-72
2022/10/16 03:04:21;;;;;;;20.42;9.85;;;;;;;13.66;94.52;100508.84;2064130;28;20042;-72
2022/10/16 03:05:30;;;;;;;17.33;9.75;;;;;;;13.66;94.59;100506.16;2064721;28;20130;-72
2022/10/16 03:06:35;;;;;;;19.27;9.98;;;;;;;13.65;94.25;100512.66;2071838;28;20070;-72
2022/10/16 03:07:40;;;;;;;26.30;9.93;;;;;;;13.65;94.28;100513.47;2063884;28;20517;-73
2022/10/16 03:08:42;;;;;;;21.85;9.63;;;;;;;13.62;94.52;100514.06;2071903;28;20478;-72
2022/10/16 03:09:47;;;;;;;20.33;9.38;;;;;;;13.63;94.27;100512.97;2071274;28;20056;-72
2022/10/16 03:10:52;;;;;;;18.58;9.48;;;;;;;13.63;94.32;100512.97;2063682;28;20057;-73
2022/10/16 03:11:58;;;;;;;18.90;10.13;;;;;;;13.62;94.37;100508.66;2057491;28;20054;-72
2022/10/16 03:13:04;;;;;;;20.52;10.68;;;;;;;13.63;94.55;100509.47;2071392;28;20113;-72
2022/10/16 03:14:10;;;;;;;21.38;10.00;;;;;;;13.63;94.41;100515.66;2065737;28;20058;-73
2022/10/16 03:15:15;;;;;;;24.02;10.07;;;;;;;13.62;94.37;100511.38;2064264;28;20058;-73
2022/10/16 03:16:18;;;;;;;20.10;9.23;;;;;;;13.61;94.52;100509.75;2056523;28;20139;-72
2022/10/16 03:17:25;;;;;;;18.10;9.25;;;;;;;13.62;94.20;100521.38;2057566;28;20054;-72
2022/10/16 03:18:30;;;;;;;19.17;9.07;;;;;;;13.60;94.53;100516.25;2064571;28;20409;-72
2022/10/16 03:19:38;;;;;;;20.17;9.93;;;;;;;13.61;94.76;100511.66;2065178;28;20045;-71
2022/10/16 03:20:45;;;;;;;18.00;9.07;;;;;;;13.62;94.71;100510.56;2064638;28;20042;-71
2022/10/16 03:21:51;;;;;;;18.15;9.88;;;;;;;13.62;94.51;100516.78;2057603;28;20066;-72
2022/10/16 03:22:53;;;;;;;18.88;9.85;;;;;;;13.66;94.75;100519.66;2064664;28;20089;-71
2022/10/16 03:23:56;;;;;;;19.58;10.25;;;;;;;13.66;94.75;100514.25;2072293;28;20049;-72
2022/10/16 03:25:01;;;;;;;16.83;9.30;;;;;;;13.66;94.71;100519.66;2064512;28;20583;-71
2022/10/16 03:26:04;;;;;;;17.52;10.02;;;;;;;13.66;94.78;100515.06;2064593;28;20661;-71
2022/10/16 03:27:07;;;;;;;18.58;9.40;;;;;;;13.68;94.80;100517.44;2056608;28;20048;-71
2022/10/16 03:28:10;;;;;;;18.05;9.80;;;;;;;13.69;94.43;100519.06;2056710;28;20053;-71
2022/10/16 03:29:14;;;;;;;19.67;10.05;;;;;;;13.70;94.75;100514.47;2068527;28;20057;-72
2022/10/16 03:30:19;;;;;;;19.80;10.27;;;;;;;13.70;94.47;100517.16;2072547;28;20053;-72
2022/10/16 03:31:26;;;;;;;24.63;10.75;;;;;;;13.69;94.58;100513.66;2065240;28;20051;-72
2022/10/16 03:32:31;;;;;;;24.33;11.45;;;;;;;13.67;94.31;100513.94;2057204;28;20038;-72
2022/10/16 03:33:34;;;;;;;22.15;9.88;;;;;;;13.67;94.33;100522.06;2057695;28;20404;-72
2022/10/16 03:34:39;;;;;;;21.98;10.57;;;;;;;13.68;94.50;100518.28;2064847;28;20426;-72
2022/10/16 03:35:42;;;;;;;23.30;11.13;;;;;;;13.70;94.73;100519.88;2072350;28;20038;-72
2022/10/16 03:36:48;;;;;;;20.55;10.63;;;;;;;13.70;94.37;100519.88;2072391;28;20053;-72
2022/10/16 03:37:56;;;;;;;22.40;10.30;;;;;;;13.70;94.60;100520.66;2063678;28;20034;-72
2022/10/16 03:38:58;;;;;;;19.88;10.02;;;;;;;13.69;94.21;100513.66;2065464;28;20041;-72
2022/10/16 03:40:02;;;;;;;24.50;10.90;;;;;;;13.70;94.63;100514.47;2063237;28;20049;-72
2022/10/16 03:41:09;;;;;;;18.90;9.70;;;;;;;13.71;94.62;100511.44;2063863;28;20126;-72
2022/10/16 03:42:19;;;;;;;20.52;10.40;;;;;;;13.72;94.76;100506.88;2072326;28;20049;-72
2022/10/16 03:43:23;;;;;;;20.15;10.82;;;;;;;13.71;94.58;100506.03;2071162;28;20418;-72
2022/10/16 03:44:28;;;;;;;22.77;10.18;;;;;;;13.71;94.51;100510.66;2062524;28;20045;-72
2022/10/16 03:45:34;;;;;;;18.27;9.88;;;;;;;13.69;94.51;100510.97;2056330;28;20055;-73
2022/10/16 03:46:39;;;;;;;22.02;10.65;;;;;;;13.70;94.66;100504.44;2056256;28;20043;-72
2022/10/16 03:47:45;;;;;;;23.88;9.95;;;;;;;13.73;94.62;100505.75;2063635;28;20046;-72
2022/10/16 03:48:50;;;;;;;18.50;9.57;;;;;;;13.73;94.67;100508.47;2063990;28;20041;-72
2022/10/16 03:49:53;;;;;;;18.83;9.68;;;;;;;13.74;94.76;100515.44;2064701;28;20093;-72
2022/10/16 03:50:56;;;;;;;19.27;9.57;;;;;;;13.73;94.60;100514.66;2064207;28;20053;-72
2022/10/16 03:52:01;;;;;;;20.50;10.15;;;;;;;13.73;94.51;100513.88;2063989;28;20533;-72
2022/10/16 03:53:06;;;;;;;19.70;10.38;;;;;;;13.73;94.55;100514.66;2056238;28;20035;-73
2022/10/16 03:54:10;;;;;;;18.25;10.35;;;;;;;13.74;94.54;100510.84;2056787;28;20053;-73
2022/10/16 03:55:18;;;;;;;22.70;10.35;;;;;;;13.75;94.65;100512.47;2063974;28;20058;-72
2022/10/16 03:56:23;;;;;;;21.05;9.13;;;;;;;13.76;94.83;100511.34;2064360;28;20042;-73
2022/10/16 03:57:28;;;;;;;19.48;9.93;;;;;;;13.79;94.85;100509.97;2056257;28;20049;-72
2022/10/16 03:58:39;;;;;;;16.00;9.40;;;;;;;13.80;94.84;100515.06;2057796;28;20034;-73
2022/10/16 03:59:43;;;;;;;18.38;9.52;;;;;;;13.80;94.66;100514.25;2063967;28;20050;-72
2022/10/16 04:00:49;;;;;;;19.02;9.73;;;;;;;13.81;94.63;100521.28;2065523;28;20042;-72
2022/10/16 04:01:52;;;;;;;18.52;9.48;;;;;;;13.83;94.60;100524.47;2071953;28;20041;-72
2022/10/16 04:02:55;;;;;;;20.20;10.63;;;;;;;13.84;94.71;100526.06;2073228;28;20033;-72
2022/10/16 04:04:03;;;;;;;18.23;9.68;;;;;;;13.86;94.56;100518.47;2080521;28;20068;-72
2022/10/16 04:05:07;;;;;;;21.55;10.15;;;;;;;13.84;94.67;100515.25;2065252;28;20042;-72
2022/10/16 04:06:10;;;;;;;18.27;9.63;;;;;;;13.84;94.42;100515.25;2064461;28;20587;-72
2022/10/16 04:07:17;;;;;;;18.33;8.95;;;;;;;13.84;94.49;100512.53;2079282;28;20050;-72
2022/10/16 04:08:26;;;;;;;20.13;9.82;;;;;;;13.84;94.80;100507.13;2076399;28;20053;-72
2022/10/16 04:09:29;;;;;;;16.58;9.55;;;;;;;13.85;94.45;100519.56;2072540;28;20875;-71
2022/10/16 04:10:34;;;;;;;21.60;10.43;;;;;;;13.86;94.71;100513.84;2071500;28;20501;-71
2022/10/16 04:11:39;;;;;;;17.88;9.45;;;;;;;13.87;94.46;100526.28;2071895;28;20045;-72
2022/10/16 04:12:45;;;;;;;18.08;9.50;;;;;;;13.87;94.72;100528.97;2072155;28;20041;-72
2022/10/16 04:13:51;;;;;;;18.38;8.93;;;;;;;13.88;94.78;100527.88;2079693;28;20049;-72
2022/10/16 04:14:54;;;;;;;18.42;9.57;;;;;;;13.89;94.63;100531.38;2071993;28;20084;-72
2022/10/16 04:15:56;;;;;;;16.88;8.98;;;;;;;13.91;94.65;100524.56;2063350;28;20049;-72
2022/10/16 04:17:00;;;;;;;17.92;9.88;;;;;;;13.89;94.51;100528.66;2063620;28;20539;-72
2022/10/16 04:18:05;;;;;;;19.13;9.35;;;;;;;13.87;94.33;100531.69;2063375;28;20032;-72
2022/10/16 04:19:13;;;;;;;19.10;9.38;;;;;;;13.87;94.48;100537.09;2065269;28;20053;-72
2022/10/16 04:20:16;;;;;;;16.15;9.32;;;;;;;13.88;94.66;100540.59;2072184;28;20048;-72
2022/10/16 04:21:20;;;;;;;17.92;9.85;;;;;;;13.89;94.71;100540.28;2064339;28;20038;-73
2022/10/16 04:22:22;;;;;;;19.63;10.32;;;;;;;13.91;94.46;100537.28;2056412;28;20053;-72
2022/10/16 04:23:26;;;;;;;19.77;10.70;;;;;;;13.89;94.27;100534.06;2063465;28;20046;-72
2022/10/16 04:24:35;;;;;;;20.63;10.30;;;;;;;13.89;94.55;100534.06;2080092;28;20485;-72
2022/10/16 04:25:40;;;;;;;18.95;9.52;;;;;;;13.88;94.30;100543.28;2064217;28;20506;-72
2022/10/16 04:26:47;;;;;;;20.60;9.90;;;;;;;13.90;94.25;100535.66;2057292;28;20077;-72
2022/10/16 04:27:53;;;;;;;18.63;9.75;;;;;;;13.91;94.23;100532.69;2072479;28;20390;-72
2022/10/16 04:28:56;;;;;;;19.48;9.23;;;;;;;13.94;94.36;100536.69;2071575;28;20042;-73
2022/10/16 04:30:04;;;;;;;19.27;9.50;;;;;;;13.95;94.52;100532.88;2063062;28;20050;-72
2022/10/16 04:31:07;;;;;;;16.55;8.93;;;;;;;13.93;94.70;100529.66;2071896;28;20045;-73
2022/10/16 04:32:09;;;;;;;19.73;9.15;;;;;;;13.96;94.64;100518.25;2064019;28;20494;-73
2022/10/16 04:33:15;;;;;;;17.02;8.77;;;;;;;13.96;94.76;100518.25;2065021;28;20442;-72
2022/10/16 04:34:20;;;;;;;18.38;9.23;;;;;;;13.98;94.87;100524.16;2072048;28;20541;-72
2022/10/16 04:35:25;;;;;;;20.60;10.00;;;;;;;13.98;94.79;100521.47;2063083;28;20053;-72
2022/10/16 04:36:33;;;;;;;18.08;9.60;;;;;;;13.98;94.76;100521.47;2070785;28;20054;-72
2022/10/16 04:37:35;;;;;;;20.98;10.25;;;;;;;13.96;94.35;100529.06;2063197;28;20038;-72
2022/10/16 04:38:39;;;;;;;19.77;10.05;;;;;;;13.97;94.53;100536.09;2055724;28;20113;-73
2022/10/16 04:39:46;;;;;;;17.27;9.45;;;;;;;13.96;94.66;100529.06;2055275;28;20050;-72
2022/10/16 04:40:50;;;;;;;19.05;9.57;;;;;;;13.97;94.53;100529.88;2064680;28;20038;-72
2022/10/16 04:41:59;;;;;;;22.58;9.57;;;;;;;13.95;94.76;100538.28;2070964;28;20045;-72
2022/10/16 04:43:05;;;;;;;21.77;9.63;;;;;;;13.93;94.69;100535.06;2063851;28;20053;-72
2022/10/16 04:44:11;;;;;;;18.50;9.07;;;;;;;13.92;94.53;100528.06;2063829;28;20050;-72
2022/10/16 04:45:14;;;;;;;25.75;10.27;;;;;;;13.93;94.59;100528.88;2062751;28;20072;-72
2022/10/16 04:46:22;;;;;;;18.23;9.35;;;;;;;13.93;94.84;100537.75;2071070;28;20054;-72
2022/10/16 04:47:25;;;;;;;19.48;10.07;;;;;;;13.94;94.74;100531.28;2063152;28;20142;-72
2022/10/16 04:48:30;;;;;;;26.30;11.05;;;;;;;13.95;95.02;100532.88;2063393;28;20045;-72
2022/10/16 04:49:38;;;;;;;17.88;9.73;;;;;;;13.96;94.68;100528.25;2064130;28;20054;-72
2022/10/16 04:50:42;;;;;;;18.10;9.75;;;;;;;13.95;94.77;100516.66;2070910;28;20060;-72
2022/10/16 04:51:44;;;;;;;18.70;9.63;;;;;;;13.97;95.17;100514.47;2063822;28;20344;-72
2022/10/16 04:52:49;;;;;;;20.30;9.60;;;;;;;13.99;94.66;100530.34;2056573;28;20042;-72
2022/10/16 04:53:55;;;;;;;19.45;9.98;;;;;;;13.98;94.86;100529.56;2071458;28;20049;-73
2022/10/16 04:55:02;;;;;;;21.30;10.25;;;;;;;13.98;94.73;100537.69;2072008;28;20518;-72
2022/10/16 04:56:07;;;;;;;18.80;10.50;;;;;;;14.00;95.12;100534.69;2065032;28;20046;-72
2022/10/16 04:57:12;;;;;;;20.27;9.88;;;;;;;13.96;95.08;100539.88;2047959;28;20050;-72
2022/10/16 04:58:17;;;;;;;18.40;9.75;;;;;;;13.97;95.16;100540.69;2048335;28;20508;-72
2022/10/16 04:59:22;;;;;;;18.63;9.75;;;;;;;13.97;94.98;100544.19;2064736;28;20259;-72
2022/10/16 05:00:27;;;;;;;20.98;10.27;;;;;;;14.00;94.86;100535.47;2078585;28;20052;-72
2022/10/16 05:01:32;;;;;;;18.80;10.45;;;;;;;14.02;95.21;100544.06;2070184;28;20664;-72
2022/10/16 05:02:38;;;;;;;18.90;9.95;;;;;;;14.03;94.98;100528.66;2071348;28;20056;-74
2022/10/16 05:03:48;;;;;;;17.33;9.55;;;;;;;14.04;95.09;100531.06;2076443;28;20049;-72
2022/10/16 05:04:51;;;;;;;19.70;9.68;;;;;;;14.07;95.18;100535.06;2063187;28;20038;-73
2022/10/16 05:05:58;;;;;;;19.60;10.25;;;;;;;14.09;95.02;100536.38;2062736;28;20042;-72
2022/10/16 05:07:04;;;;;;;19.98;10.57;;;;;;;14.11;94.85;100547.66;2078820;28;20049;-72